Time;durP1;ratioP1;P1;durP2;ratioP2;P2;SDS_P1;SDS_P2;PMS_P1;PMS_P2;Temp;Humidity;BMP_temperature;BMP_pressure;BME280_temperature;BME280_humidity;BME280_pressure;Samples;Min_cycle;Max_cycle;Signal;HPM_P1;HPM_P2
2022/04/17 00:00:29;;;;;;;7.72;3.83;;;;;;;;;;5038721;28;20053;-81
2022/04/17 00:02:57;;;;;;;6.97;3.60;;;;;;;;;;5045232;28;20080;-81
2022/04/17 00:05:25;;;;;;;5.53;3.30;;;;;;;;;;5047488;28;20052;-81
2022/04/17 00:07:53;;;;;;;6.47;3.30;;;;;;;;;;5043608;28;20053;-81
2022/04/17 00:10:21;;;;;;;3.63;2.65;;;;;;;;;;5044070;28;20060;-81
2022/04/17 00:12:49;;;;;;;9.23;3.47;;;;;;;;;;5045550;28;20053;-81
2022/04/17 00:15:16;;;;;;;6.07;3.40;;;;;;;;;;5046300;28;20098;-81
2022/04/17 00:17:43;;;;;;;9.93;3.38;;;;;;;;;;5044338;28;20499;-81
2022/04/17 00:20:12;;;;;;;7.30;3.60;;;;;;;;;;5046637;28;20063;-81
2022/04/17 00:22:41;;;;;;;6.20;3.63;;;;;;;;;;5046334;28;20051;-81
2022/04/17 00:25:08;;;;;;;8.90;3.55;;;;;;;;;;5042931;28;20045;-81
2022/04/17 00:27:35;;;;;;;6.88;3.38;;;;;;;;;;5042013;28;20067;-81
2022/04/17 00:30:03;;;;;;;8.90;3.45;;;;;;;;;;5046523;28;20066;-81
2022/04/17 00:32:31;;;;;;;6.13;3.33;;;;;;;;;;5034767;28;20068;-81
2022/04/17 00:34:58;;;;;;;6.85;3.25;;;;;;;;;;5035420;28;20063;-81
2022/04/17 00:37:26;;;;;;;5.28;2.85;;;;;;;;;;5046262;28;20118;-81
2022/04/17 00:39:55;;;;;;;10.30;3.65;;;;;;;;;;5040563;28;20059;-82
2022/04/17 00:42:22;;;;;;;5.30;3.08;;;;;;;;;;5041622;28;20045;-81
2022/04/17 00:44:49;;;;;;;7.03;2.80;;;;;;;;;;5035946;28;20053;-81
2022/04/17 00:47:17;;;;;;;5.38;3.20;;;;;;;;;;5046697;28;20194;-81
2022/04/17 00:49:45;;;;;;;8.98;3.25;;;;;;;;;;5042788;28;20598;-82
2022/04/17 00:52:12;;;;;;;4.25;3.03;;;;;;;;;;5044542;28;20142;-81
2022/04/17 00:54:42;;;;;;;4.15;3.08;;;;;;;;;;5038583;28;20123;-81
2022/04/17 00:57:12;;;;;;;5.43;3.55;;;;;;;;;;5045946;28;20396;-81
2022/04/17 00:59:40;;;;;;;5.55;3.10;;;;;;;;;;5032748;28;20801;-81
2022/04/17 01:02:07;;;;;;;6.40;3.58;;;;;;;;;;5038213;28;20057;-81
2022/04/17 01:04:34;;;;;;;6.65;3.28;;;;;;;;;;5039421;28;20049;-81
2022/04/17 01:07:02;;;;;;;5.07;3.28;;;;;;;;;;5044342;28;20071;-81
2022/04/17 01:09:30;;;;;;;5.43;2.97;;;;;;;;;;5039904;28;20048;-82
2022/04/17 01:11:57;;;;;;;5.78;3.50;;;;;;;;;;5042111;28;20142;-81
2022/04/17 01:14:27;;;;;;;6.45;3.45;;;;;;;;;;5039896;28;20523;-81
2022/04/17 01:16:55;;;;;;;9.15;3.70;;;;;;;;;;5040537;28;20135;-81
2022/04/17 01:19:23;;;;;;;6.03;4.05;;;;;;;;;;5034409;28;20084;-81
2022/04/17 01:21:53;;;;;;;8.00;3.88;;;;;;;;;;5041849;28;20057;-81
2022/04/17 01:27:06;;;;;;;6.55;3.95;;;;;;;;;;5032228;28;20076;-81
2022/04/17 01:29:34;;;;;;;6.85;3.33;;;;;;;;;;5044629;28;20508;-81
2022/04/17 01:32:02;;;;;;;6.10;3.67;;;;;;;;;;5038533;28;20103;-81
2022/04/17 01:34:30;;;;;;;6.53;3.47;;;;;;;;;;5041041;28;20041;-81
2022/04/17 01:37:00;;;;;;;8.75;3.78;;;;;;;;;;5043592;28;20060;-81
2022/04/17 01:39:27;;;;;;;5.85;3.55;;;;;;;;;;5034714;28;20124;-81
2022/04/17 01:41:55;;;;;;;5.75;3.33;;;;;;;;;;5045108;28;20057;-81
2022/04/17 01:44:24;;;;;;;5.50;3.72;;;;;;;;;;5044039;28;20050;-81
2022/04/17 01:46:51;;;;;;;5.55;3.88;;;;;;;;;;5040206;28;20151;-81
2022/04/17 01:49:19;;;;;;;5.53;3.70;;;;;;;;;;5042921;28;20057;-81
2022/04/17 01:51:47;;;;;;;7.72;3.90;;;;;;;;;;5043994;28;20057;-81
2022/04/17 01:54:16;;;;;;;6.43;3.85;;;;;;;;;;5038462;28;20061;-81
2022/04/17 01:56:47;;;;;;;6.65;4.28;;;;;;;;;;5037685;28;20041;-81
2022/04/17 01:59:14;;;;;;;5.50;3.85;;;;;;;;;;5045388;28;20492;-81
2022/04/17 02:01:42;;;;;;;6.57;4.22;;;;;;;;;;5042953;28;20052;-81
2022/04/17 02:04:10;;;;;;;6.32;4.30;;;;;;;;;;5032847;28;20103;-81
2022/04/17 02:06:39;;;;;;;6.78;3.83;;;;;;;;;;5033188;28;20041;-81
2022/04/17 02:09:08;;;;;;;6.80;4.35;;;;;;;;;;5036373;28;20068;-81
2022/04/17 02:11:38;;;;;;;10.30;3.90;;;;;;;;;;5029088;28;20499;-81
2022/04/17 02:14:06;;;;;;;6.47;4.50;;;;;;;;;;5042364;28;20045;-81
2022/04/17 02:16:33;;;;;;;8.02;4.20;;;;;;;;;;5032817;28;20037;-81
2022/04/17 02:19:01;;;;;;;8.27;4.32;;;;;;;;;;5038771;28;20122;-81
2022/04/17 02:21:29;;;;;;;7.05;4.53;;;;;;;;;;5031793;28;20486;-81
2022/04/17 02:23:56;;;;;;;7.75;4.60;;;;;;;;;;5036957;28;20476;-81
2022/04/17 02:26:23;;;;;;;7.15;4.68;;;;;;;;;;5039844;28;20140;-81
2022/04/17 02:28:56;;;;;;;8.25;4.40;;;;;;;;;;5035657;28;20631;-81
2022/04/17 02:31:23;;;;;;;8.02;4.40;;;;;;;;;;5040123;28;20689;-81
2022/04/17 02:33:50;;;;;;;7.07;4.00;;;;;;;;;;5039584;28;20504;-81
2022/04/17 02:36:18;;;;;;;8.38;4.40;;;;;;;;;;5032245;28;20122;-81
2022/04/17 02:38:45;;;;;;;6.75;4.10;;;;;;;;;;5036484;28;20064;-81
2022/04/17 02:41:12;;;;;;;9.75;4.50;;;;;;;;;;5029354;28;20420;-81
2022/04/17 02:43:39;;;;;;;6.57;4.60;;;;;;;;;;5044923;28;20049;-81
2022/04/17 02:46:08;;;;;;;9.57;4.63;;;;;;;;;;5043130;28;20056;-81
2022/04/17 02:48:34;;;;;;;8.00;4.78;;;;;;;;;;5044274;28;20053;-81
2022/04/17 02:51:02;;;;;;;8.65;4.93;;;;;;;;;;5038666;28;20658;-81
2022/04/17 02:53:31;;;;;;;7.35;4.65;;;;;;;;;;5035123;28;20053;-81
2022/04/17 02:55:59;;;;;;;7.55;4.50;;;;;;;;;;5037222;28;20142;-81
2022/04/17 02:58:26;;;;;;;8.13;4.78;;;;;;;;;;5039008;28;20053;-81
2022/04/17 03:06:24;;;;;;;8.82;4.93;;;;;;;;;;5036221;28;20088;-81
2022/04/17 03:08:51;;;;;;;8.02;5.07;;;;;;;;;;5042344;28;20056;-81
2022/04/17 03:11:18;;;;;;;8.55;4.88;;;;;;;;;;5040066;28;20060;-81
2022/04/17 03:13:48;;;;;;;12.52;5.07;;;;;;;;;;5037330;28;20114;-81
2022/04/17 03:16:15;;;;;;;10.07;5.20;;;;;;;;;;5040750;28;20217;-81
2022/04/17 03:18:44;;;;;;;7.68;5.00;;;;;;;;;;5041267;28;20366;-81
2022/04/17 03:21:11;;;;;;;8.25;4.85;;;;;;;;;;5034556;28;20136;-81
2022/04/17 03:23:38;;;;;;;6.75;5.03;;;;;;;;;;5033419;28;20462;-81
2022/04/17 03:26:05;;;;;;;7.68;5.00;;;;;;;;;;5038463;28;20103;-81
2022/04/17 03:28:32;;;;;;;7.55;4.90;;;;;;;;;;5037587;28;20114;-81
2022/04/17 03:31:00;;;;;;;7.68;5.00;;;;;;;;;;5038970;28;20052;-81
2022/04/17 03:33:28;;;;;;;7.80;5.50;;;;;;;;;;5045244;28;20065;-81
2022/04/17 03:35:57;;;;;;;9.07;5.32;;;;;;;;;;5039530;28;20132;-81
2022/04/17 03:38:24;;;;;;;9.15;5.30;;;;;;;;;;5042197;28;20054;-81
2022/04/17 03:40:52;;;;;;;7.57;5.13;;;;;;;;;;5034037;28;20111;-81
2022/04/17 03:43:19;;;;;;;8.30;5.07;;;;;;;;;;5030271;28;20049;-81
2022/04/17 03:45:47;;;;;;;7.30;4.93;;;;;;;;;;5033832;28;20045;-81
2022/04/17 03:48:17;;;;;;;7.78;5.00;;;;;;;;;;5038296;28;20103;-81
2022/04/17 03:50:44;;;;;;;7.97;5.15;;;;;;;;;;5040945;28;20048;-81
2022/04/17 03:53:13;;;;;;;8.73;5.43;;;;;;;;;;5035042;28;20487;-82
2022/04/17 03:55:40;;;;;;;9.40;5.45;;;;;;;;;;5034270;28;20083;-81
2022/04/17 03:58:08;;;;;;;9.07;5.45;;;;;;;;;;5037225;28;20563;-81
2022/04/17 04:00:35;;;;;;;11.20;5.43;;;;;;;;;;5040510;28;20072;-81
2022/04/17 04:03:02;;;;;;;16.33;5.82;;;;;;;;;;5034762;28;20057;-81
2022/04/17 04:05:29;;;;;;;9.10;5.20;;;;;;;;;;5044132;28;20110;-81
2022/04/17 04:07:56;;;;;;;9.43;5.50;;;;;;;;;;5041883;28;20679;-81
2022/04/17 04:10:25;;;;;;;8.20;5.80;;;;;;;;;;5045864;28;20075;-81
2022/04/17 04:12:52;;;;;;;7.57;5.30;;;;;;;;;;5043187;28;20077;-81
2022/04/17 04:15:20;;;;;;;9.02;5.82;;;;;;;;;;5058529;28;20114;-81
2022/04/17 04:17:47;;;;;;;10.02;5.78;;;;;;;;;;5040785;28;20547;-81
2022/04/17 04:20:14;;;;;;;8.35;5.57;;;;;;;;;;5038391;28;20049;-81
2022/04/17 04:22:41;;;;;;;7.85;5.53;;;;;;;;;;5047573;28;20506;-81
2022/04/17 04:25:09;;;;;;;9.32;5.70;;;;;;;;;;5042982;28;20053;-81
2022/04/17 04:30:23;;;;;;;10.35;5.85;;;;;;;;;;5044224;28;20049;-81
2022/04/17 04:32:54;;;;;;;10.73;5.90;;;;;;;;;;5038827;28;20045;-81
2022/04/17 04:35:21;;;;;;;12.75;5.60;;;;;;;;;;5035316;28;20053;-81
2022/04/17 04:37:49;;;;;;;9.93;5.70;;;;;;;;;;5038938;28;20199;-81
2022/04/17 04:40:22;;;;;;;12.15;6.28;;;;;;;;;;5042929;28;20053;-81
2022/04/17 04:42:57;;;;;;;15.23;6.47;;;;;;;;;;5041630;28;20471;-81
2022/04/17 04:48:09;;;;;;;8.18;5.72;;;;;;;;;;5041993;28;20045;-81
2022/04/17 04:50:36;;;;;;;10.25;5.85;;;;;;;;;;5042940;28;20056;-81
2022/04/17 04:53:03;;;;;;;10.80;6.15;;;;;;;;;;5042065;28;20114;-81
2022/04/17 04:55:31;;;;;;;8.48;6.00;;;;;;;;;;5042809;28;20049;-81
2022/04/17 04:58:01;;;;;;;9.07;6.00;;;;;;;;;;5042678;28;20080;-81
2022/04/17 05:00:29;;;;;;;10.30;6.32;;;;;;;;;;5041221;28;20081;-81
2022/04/17 05:02:56;;;;;;;9.32;5.75;;;;;;;;;;5041254;28;20060;-81
2022/04/17 05:05:23;;;;;;;10.65;6.10;;;;;;;;;;5045987;28;20064;-81
2022/04/17 05:07:50;;;;;;;9.77;6.03;;;;;;;;;;5050529;28;20102;-81
2022/04/17 05:10:18;;;;;;;9.20;5.93;;;;;;;;;;5038359;28;20914;-81
2022/04/17 05:12:45;;;;;;;9.73;5.80;;;;;;;;;;5038779;28;20072;-81
2022/04/17 05:15:15;;;;;;;8.13;5.82;;;;;;;;;;5039583;28;20061;-80
2022/04/17 05:17:43;;;;;;;10.77;6.63;;;;;;;;;;5040171;28;20045;-81
2022/04/17 05:20:11;;;;;;;9.57;6.40;;;;;;;;;;5039827;28;20208;-80
2022/04/17 05:22:38;;;;;;;12.07;6.40;;;;;;;;;;5041490;28;20049;-80
2022/04/17 05:25:05;;;;;;;11.90;6.82;;;;;;;;;;5042992;28;20057;-80
2022/04/17 05:27:33;;;;;;;9.40;6.40;;;;;;;;;;5037916;28;20049;-80
2022/04/17 05:30:00;;;;;;;10.65;6.75;;;;;;;;;;5038174;28;20438;-81
2022/04/17 05:32:29;;;;;;;9.95;6.65;;;;;;;;;;5039808;28;20107;-81
2022/04/17 05:34:56;;;;;;;9.95;6.03;;;;;;;;;;5043268;28;20059;-80
2022/04/17 05:37:23;;;;;;;9.32;6.68;;;;;;;;;;5043014;28;21956;-79
2022/04/17 05:39:50;;;;;;;10.57;6.68;;;;;;;;;;5038916;28;20119;-80
2022/04/17 05:42:18;;;;;;;12.57;6.55;;;;;;;;;;5041632;28;20052;-81
2022/04/17 05:44:45;;;;;;;11.10;6.60;;;;;;;;;;5043782;28;20061;-81
2022/04/17 05:47:13;;;;;;;9.60;6.68;;;;;;;;;;5037634;28;20045;-81
2022/04/17 05:49:41;;;;;;;11.25;6.38;;;;;;;;;;5040116;28;20150;-81
2022/04/17 05:52:09;;;;;;;12.40;6.35;;;;;;;;;;5037005;28;20068;-82
2022/04/17 05:54:36;;;;;;;8.25;5.80;;;;;;;;;;5037453;28;20446;-81
2022/04/17 05:57:03;;;;;;;11.27;6.60;;;;;;;;;;5038259;28;20041;-81
2022/04/17 05:59:31;;;;;;;8.82;6.15;;;;;;;;;;5039712;28;20049;-81
2022/04/17 06:01:58;;;;;;;10.07;6.40;;;;;;;;;;5036139;28;20064;-81
2022/04/17 06:04:25;;;;;;;10.13;6.68;;;;;;;;;;5037688;28;20044;-81
2022/04/17 06:06:54;;;;;;;9.20;6.07;;;;;;;;;;5034972;28;20055;-81
2022/04/17 06:09:21;;;;;;;9.82;6.72;;;;;;;;;;5042612;28;20064;-81
2022/04/17 06:11:48;;;;;;;12.95;6.82;;;;;;;;;;5040099;28;20069;-81
2022/04/17 06:14:16;;;;;;;8.68;6.22;;;;;;;;;;5043032;28;20068;-81
2022/04/17 06:16:43;;;;;;;9.82;6.15;;;;;;;;;;5034834;28;20496;-81
2022/04/17 06:19:10;;;;;;;11.43;6.60;;;;;;;;;;5038165;28;20041;-82
2022/04/17 06:21:37;;;;;;;13.45;6.50;;;;;;;;;;5033829;28;20056;-81
2022/04/17 06:24:06;;;;;;;10.00;6.57;;;;;;;;;;5034121;28;20415;-81
2022/04/17 06:26:34;;;;;;;10.65;6.35;;;;;;;;;;5034385;28;20053;-80
2022/04/17 06:29:05;;;;;;;11.80;7.07;;;;;;;;;;5036813;28;20053;-81
2022/04/17 06:31:32;;;;;;;12.25;6.70;;;;;;;;;;5039771;28;20049;-81
2022/04/17 06:34:00;;;;;;;11.35;6.35;;;;;;;;;;5043133;28;20057;-80
2022/04/17 06:36:27;;;;;;;11.73;6.28;;;;;;;;;;5039501;28;20427;-80
2022/04/17 06:38:54;;;;;;;11.80;6.43;;;;;;;;;;5042766;28;20102;-79
2022/04/17 06:41:23;;;;;;;10.13;6.45;;;;;;;;;;5038104;28;20049;-80
2022/04/17 06:43:50;;;;;;;9.65;6.03;;;;;;;;;;5037869;28;20053;-81
2022/04/17 06:46:17;;;;;;;12.15;6.57;;;;;;;;;;5038032;28;20057;-78
2022/04/17 06:48:45;;;;;;;11.63;6.53;;;;;;;;;;5036375;28;20056;-81
2022/04/17 06:51:12;;;;;;;10.90;6.22;;;;;;;;;;5037795;28;20059;-80
2022/04/17 06:53:39;;;;;;;7.82;5.97;;;;;;;;;;5040186;28;20049;-80
2022/04/17 06:56:08;;;;;;;11.43;6.13;;;;;;;;;;5039345;28;22406;-79
2022/04/17 06:58:37;;;;;;;11.57;6.38;;;;;;;;;;5037556;28;20504;-81
2022/04/17 07:01:04;;;;;;;10.15;6.40;;;;;;;;;;5040011;28;20052;-81
2022/04/17 07:03:31;;;;;;;9.77;6.43;;;;;;;;;;5037805;28;20111;-82
2022/04/17 07:05:59;;;;;;;11.20;6.35;;;;;;;;;;5036693;28;20064;-81
2022/04/17 07:08:28;;;;;;;10.65;6.10;;;;;;;;;;5039154;28;20124;-81
2022/04/17 07:10:56;;;;;;;12.23;6.47;;;;;;;;;;5041432;28;20053;-82
2022/04/17 07:13:24;;;;;;;9.40;6.05;;;;;;;;;;5043013;28;20052;-80
2022/04/17 07:15:52;;;;;;;8.82;6.07;;;;;;;;;;5037829;28;20057;-79
2022/04/17 07:18:20;;;;;;;9.60;5.78;;;;;;;;;;5038586;28;20052;-79
2022/04/17 07:20:47;;;;;;;8.18;5.47;;;;;;;;;;5036252;28;20057;-81
2022/04/17 07:23:14;;;;;;;13.25;6.28;;;;;;;;;;5042215;28;20045;-78
2022/04/17 07:25:42;;;;;;;9.13;6.20;;;;;;;;;;5041753;28;20056;-78
2022/04/17 07:28:13;;;;;;;12.00;6.00;;;;;;;;;;5043260;28;20134;-81
2022/04/17 07:30:40;;;;;;;10.38;5.95;;;;;;;;;;5035420;28;20099;-81
2022/04/17 07:33:09;;;;;;;11.93;5.65;;;;;;;;;;5036805;28;20057;-81
2022/04/17 07:35:36;;;;;;;10.55;5.50;;;;;;;;;;5041896;28;20586;-81
2022/04/17 07:38:04;;;;;;;8.80;5.65;;;;;;;;;;5042197;28;20063;-82
2022/04/17 07:40:32;;;;;;;8.90;4.90;;;;;;;;;;5047611;28;21100;-82
2022/04/17 07:43:00;;;;;;;9.77;5.20;;;;;;;;;;5043426;28;20144;-81
2022/04/17 07:45:27;;;;;;;8.60;5.20;;;;;;;;;;5043537;28;20609;-82
2022/04/17 07:47:54;;;;;;;10.40;5.60;;;;;;;;;;5044492;28;20131;-82
2022/04/17 07:50:24;;;;;;;11.38;5.80;;;;;;;;;;5042014;28;20072;-82
2022/04/17 07:52:51;;;;;;;11.52;5.13;;;;;;;;;;5048676;28;20063;-81
2022/04/17 07:55:19;;;;;;;9.93;5.38;;;;;;;;;;5044273;28;20056;-81
2022/04/17 07:57:56;;;;;;;11.18;5.70;;;;;;;;;;5045249;28;20139;-82
2022/04/17 08:00:23;;;;;;;8.18;5.53;;;;;;;;;;5045395;28;20045;-82
2022/04/17 08:02:53;;;;;;;9.95;5.82;;;;;;;;;;5040847;28;20053;-81
2022/04/17 08:05:20;;;;;;;12.13;5.43;;;;;;;;;;5039459;28;20084;-82
2022/04/17 08:07:49;;;;;;;7.70;5.15;;;;;;;;;;5046399;28;20070;-81
2022/04/17 08:10:16;;;;;;;8.02;4.60;;;;;;;;;;5046727;28;20103;-82
2022/04/17 08:12:43;;;;;;;9.93;4.53;;;;;;;;;;5041769;28;20052;-82
2022/04/17 08:15:11;;;;;;;8.88;4.32;;;;;;;;;;5043130;28;20049;-82
2022/04/17 08:17:38;;;;;;;8.60;4.60;;;;;;;;;;5042242;28;20122;-82
2022/04/17 08:20:06;;;;;;;7.43;4.60;;;;;;;;;;5045309;28;20053;-82
2022/04/17 08:22:34;;;;;;;9.50;5.18;;;;;;;;;;5047388;28;20049;-82
2022/04/17 08:25:03;;;;;;;9.18;5.15;;;;;;;;;;5048685;28;20061;-83
2022/04/17 08:27:30;;;;;;;8.55;4.97;;;;;;;;;;5035830;28;20041;-82
2022/04/17 08:30:01;;;;;;;7.68;4.85;;;;;;;;;;5037225;28;20061;-82
2022/04/17 08:32:28;;;;;;;8.75;4.57;;;;;;;;;;5040220;28;20044;-83
2022/04/17 08:34:55;;;;;;;8.70;4.88;;;;;;;;;;5041936;28;20052;-82
2022/04/17 08:37:23;;;;;;;8.90;5.05;;;;;;;;;;5039199;28;20048;-83
2022/04/17 08:39:50;;;;;;;8.52;4.88;;;;;;;;;;5040267;28;20053;-83
2022/04/17 08:42:20;;;;;;;9.68;4.35;;;;;;;;;;5039694;28;20048;-82
2022/04/17 08:44:47;;;;;;;8.18;4.68;;;;;;;;;;5036854;28;20056;-83
2022/04/17 08:47:14;;;;;;;8.25;4.88;;;;;;;;;;5034225;28;20049;-82
2022/04/17 08:49:43;;;;;;;7.38;4.40;;;;;;;;;;5040507;28;20293;-83
2022/04/17 08:52:15;;;;;;;6.70;4.97;;;;;;;;;;5041695;28;20072;-83
2022/04/17 08:54:43;;;;;;;8.00;4.97;;;;;;;;;;5037126;28;20469;-83
2022/04/17 08:57:11;;;;;;;7.72;4.28;;;;;;;;;;5039590;28;20045;-83
2022/04/17 08:59:39;;;;;;;9.52;5.13;;;;;;;;;;5042908;28;20715;-83
2022/04/17 09:02:08;;;;;;;8.50;4.90;;;;;;;;;;5044421;28;20045;-83
2022/04/17 09:04:35;;;;;;;7.30;4.60;;;;;;;;;;5039642;28;20081;-83
2022/04/17 09:07:02;;;;;;;7.25;4.53;;;;;;;;;;5036725;28;20065;-83
2022/04/17 09:09:29;;;;;;;7.82;5.03;;;;;;;;;;5033806;28;20061;-82
2022/04/17 09:11:56;;;;;;;10.00;4.90;;;;;;;;;;5041958;28;20483;-83
2022/04/17 09:14:24;;;;;;;7.82;4.15;;;;;;;;;;5038480;28;20046;-83
2022/04/17 09:16:53;;;;;;;7.65;4.97;;;;;;;;;;5042964;28;20052;-83
2022/04/17 09:19:20;;;;;;;7.55;4.75;;;;;;;;;;5042111;28;20052;-82
2022/04/17 09:21:55;;;;;;;8.38;4.75;;;;;;;;;;5036008;28;20057;-83
2022/04/17 09:24:24;;;;;;;9.60;4.55;;;;;;;;;;5040358;28;20114;-83
2022/04/17 09:26:55;;;;;;;16.40;5.40;;;;;;;;;;5037954;28;20052;-82
2022/04/17 09:29:23;;;;;;;20.52;5.70;;;;;;;;;;5039362;28;20087;-83
2022/04/17 09:31:58;;;;;;;8.00;4.90;;;;;;;;;;5039303;28;20139;-83
2022/04/17 09:34:26;;;;;;;6.40;4.38;;;;;;;;;;5043873;28;20629;-83
2022/04/17 09:36:53;;;;;;;7.93;4.70;;;;;;;;;;5038539;28;20072;-83
2022/04/17 09:39:20;;;;;;;6.20;3.90;;;;;;;;;;5030168;28;20132;-83
2022/04/17 09:41:58;;;;;;;7.60;4.30;;;;;;;;;;5043695;28;20052;-83
2022/04/17 09:44:54;;;;;;;7.72;4.82;;;;;;;;;;5034794;28;20083;-83
2022/04/17 09:47:23;;;;;;;10.82;4.68;;;;;;;;;;5038305;28;20069;-83
2022/04/17 09:49:54;;;;;;;5.90;4.10;;;;;;;;;;5039198;28;20061;-83
2022/04/17 09:52:23;;;;;;;7.72;4.35;;;;;;;;;;5035714;28;20440;-84
2022/04/17 09:54:50;;;;;;;8.75;4.15;;;;;;;;;;5039129;28;20796;-84
2022/04/17 09:57:27;;;;;;;5.90;3.90;;;;;;;;;;5035120;28;20053;-83
2022/04/17 09:59:55;;;;;;;8.48;4.30;;;;;;;;;;5036733;28;20092;-83
2022/04/17 10:02:24;;;;;;;7.60;4.35;;;;;;;;;;5035796;28;20136;-83
2022/04/17 10:04:53;;;;;;;7.00;4.00;;;;;;;;;;5043630;28;20459;-83
2022/04/17 10:07:29;;;;;;;7.97;4.00;;;;;;;;;;5049730;28;20100;-83
2022/04/17 10:09:56;;;;;;;6.03;3.60;;;;;;;;;;5039234;28;20157;-84
2022/04/17 10:12:24;;;;;;;8.45;4.22;;;;;;;;;;5042136;28;20457;-83
2022/04/17 10:14:52;;;;;;;7.53;4.32;;;;;;;;;;5039944;28;20052;-83
2022/04/17 10:17:21;;;;;;;6.65;4.25;;;;;;;;;;5046872;28;20080;-84
2022/04/17 10:19:50;;;;;;;5.38;4.10;;;;;;;;;;5041073;28;20176;-84
2022/04/17 10:22:20;;;;;;;8.32;3.78;;;;;;;;;;5037255;28;20095;-84
2022/04/17 10:24:51;;;;;;;5.75;3.80;;;;;;;;;;5034315;28;20104;-83
2022/04/17 10:27:19;;;;;;;8.15;3.92;;;;;;;;;;5038938;28;20149;-84
2022/04/17 10:29:49;;;;;;;6.07;4.20;;;;;;;;;;5038191;28;20064;-84
2022/04/17 10:32:27;;;;;;;6.53;4.03;;;;;;;;;;5035727;28;20049;-84
2022/04/17 10:35:08;;;;;;;5.28;3.10;;;;;;;;;;5041317;28;20067;-84
2022/04/17 10:37:54;;;;;;;6.90;3.70;;;;;;;;;;5037820;28;20115;-84
2022/04/17 10:40:22;;;;;;;5.60;3.75;;;;;;;;;;5038405;28;20530;-84
2022/04/17 10:42:57;;;;;;;5.53;3.58;;;;;;;;;;5041258;28;20049;-84
2022/04/17 10:45:25;;;;;;;6.10;3.78;;;;;;;;;;5038474;28;20106;-84
2022/04/17 10:48:02;;;;;;;5.15;3.70;;;;;;;;;;5037807;28;20118;-84
2022/04/17 10:50:32;;;;;;;6.43;3.58;;;;;;;;;;5035924;28;20044;-84
2022/04/17 10:53:14;;;;;;;8.00;4.03;;;;;;;;;;5039769;28;20056;-84
2022/04/17 10:56:01;;;;;;;5.20;3.53;;;;;;;;;;5043462;28;20060;-84
2022/04/17 10:58:35;;;;;;;7.85;3.80;;;;;;;;;;5042515;28;20206;-84
2022/04/17 11:01:02;;;;;;;7.72;4.18;;;;;;;;;;5036246;28;20049;-84
2022/04/17 11:03:29;;;;;;;7.45;4.13;;;;;;;;;;5037377;28;20045;-84
2022/04/17 11:06:12;;;;;;;6.00;3.78;;;;;;;;;;5039335;28;20060;-85
2022/04/17 11:08:58;;;;;;;5.60;3.67;;;;;;;;;;5024931;28;20060;-84
2022/04/17 11:11:35;;;;;;;5.93;3.78;;;;;;;;;;5037151;28;20049;-84
2022/04/17 11:14:10;;;;;;;6.00;3.60;;;;;;;;;;5039078;28;20144;-84
2022/04/17 11:16:43;;;;;;;6.70;4.00;;;;;;;;;;5043000;28;20140;-84
2022/04/17 11:19:11;;;;;;;5.43;4.00;;;;;;;;;;5037065;28;20092;-85
2022/04/17 11:21:43;;;;;;;5.72;3.80;;;;;;;;;;5040274;28;20061;-84
2022/04/17 11:24:11;;;;;;;5.45;3.38;;;;;;;;;;5040219;28;20142;-84
2022/04/17 11:26:57;;;;;;;4.13;3.33;;;;;;;;;;5041002;28;20056;-84
2022/04/17 11:29:34;;;;;;;4.95;3.50;;;;;;;;;;5039327;28;20503;-84
2022/04/17 11:32:02;;;;;;;5.18;3.08;;;;;;;;;;5041147;28;20080;-85
2022/04/17 11:34:42;;;;;;;6.38;3.28;;;;;;;;;;5039406;28;20045;-84
2022/04/17 11:37:11;;;;;;;10.45;3.30;;;;;;;;;;5043326;28;20474;-84
2022/04/17 11:39:38;;;;;;;4.60;3.28;;;;;;;;;;5038887;28;20041;-84
2022/04/17 11:42:07;;;;;;;4.10;3.30;;;;;;;;;;5039510;28;20057;-84
2022/04/17 11:44:34;;;;;;;5.40;3.20;;;;;;;;;;5040800;28;20144;-85
2022/04/17 11:47:01;;;;;;;3.83;2.83;;;;;;;;;;5038593;28;20547;-84
2022/04/17 11:49:32;;;;;;;3.70;2.95;;;;;;;;;;5032883;28;20045;-84
2022/04/17 11:52:12;;;;;;;3.95;3.20;;;;;;;;;;5042284;28;20115;-85
2022/04/17 11:54:39;;;;;;;8.35;2.90;;;;;;;;;;5038864;28;20150;-85
2022/04/17 11:57:07;;;;;;;4.68;3.03;;;;;;;;;;5038075;28;20049;-84
2022/04/17 11:59:45;;;;;;;4.40;2.90;;;;;;;;;;5034547;28;20040;-82
2022/04/17 12:02:14;;;;;;;4.60;3.35;;;;;;;;;;5038613;28;20056;-82
2022/04/17 12:04:42;;;;;;;5.35;2.92;;;;;;;;;;5033848;28;20433;-82
2022/04/17 12:07:12;;;;;;;4.68;2.95;;;;;;;;;;5038145;28;20044;-82
2022/04/17 12:09:41;;;;;;;7.05;2.67;;;;;;;;;;5041135;28;20106;-82
2022/04/17 12:12:11;;;;;;;5.78;2.75;;;;;;;;;;5041147;28;20056;-82
2022/04/17 12:14:39;;;;;;;4.95;2.90;;;;;;;;;;5039994;28;20693;-83
2022/04/17 12:17:06;;;;;;;3.33;2.65;;;;;;;;;;5041206;28;20063;-82
2022/04/17 12:19:34;;;;;;;5.75;2.83;;;;;;;;;;5040516;28;20087;-82
2022/04/17 12:22:05;;;;;;;3.72;2.90;;;;;;;;;;5038000;28;20160;-82
2022/04/17 12:24:33;;;;;;;3.78;2.67;;;;;;;;;;5044379;28;20057;-82
2022/04/17 12:27:00;;;;;;;4.22;3.22;;;;;;;;;;5039640;28;20613;-81
2022/04/17 12:29:28;;;;;;;7.40;3.22;;;;;;;;;;5038089;28;20041;-82
2022/04/17 12:31:55;;;;;;;4.93;3.10;;;;;;;;;;5031862;28;20111;-84
2022/04/17 12:34:22;;;;;;;4.13;3.38;;;;;;;;;;5038893;28;20487;-83
2022/04/17 12:36:50;;;;;;;4.90;2.78;;;;;;;;;;5039194;28;20049;-82
2022/04/17 12:39:17;;;;;;;5.57;3.38;;;;;;;;;;5037567;28;21766;-82
2022/04/17 12:41:48;;;;;;;4.00;3.28;;;;;;;;;;5042108;28;20396;-82
2022/04/17 12:44:15;;;;;;;5.20;3.63;;;;;;;;;;5040578;28;20056;-82
2022/04/17 12:46:43;;;;;;;4.43;3.28;;;;;;;;;;5042025;28;20057;-82
2022/04/17 12:49:11;;;;;;;4.88;3.63;;;;;;;;;;5040914;28;20047;-82
2022/04/17 12:51:39;;;;;;;7.28;3.78;;;;;;;;;;5045173;28;20147;-83
2022/04/17 12:54:09;;;;;;;3.78;3.10;;;;;;;;;;5041013;28;20048;-82
2022/04/17 12:56:37;;;;;;;5.50;3.80;;;;;;;;;;5042299;28;20098;-83
2022/04/17 12:59:07;;;;;;;5.05;3.58;;;;;;;;;;5039254;28;20550;-83
2022/04/17 13:01:37;;;;;;;4.75;3.70;;;;;;;;;;5043935;28;20063;-83
2022/04/17 13:04:11;;;;;;;5.30;4.25;;;;;;;;;;5041715;28;20102;-82
2022/04/17 13:06:39;;;;;;;4.32;3.78;;;;;;;;;;5040347;28;20067;-82
2022/04/17 13:09:07;;;;;;;4.82;4.00;;;;;;;;;;5041862;28;20118;-82
2022/04/17 13:11:35;;;;;;;4.93;3.97;;;;;;;;;;5038747;28;20056;-82
2022/04/17 13:14:03;;;;;;;5.25;4.10;;;;;;;;;;5036341;28;20045;-82
2022/04/17 13:16:32;;;;;;;5.00;4.35;;;;;;;;;;5041527;28;20144;-83
2022/04/17 13:18:59;;;;;;;4.90;4.40;;;;;;;;;;5041205;28;20049;-83
2022/04/17 13:21:27;;;;;;;6.68;3.80;;;;;;;;;;5035469;28;20057;-82
2022/04/17 13:23:54;;;;;;;4.53;3.90;;;;;;;;;;5036144;28;20148;-83
2022/04/17 13:26:22;;;;;;;6.78;4.20;;;;;;;;;;5041280;28;20139;-83
2022/04/17 13:28:49;;;;;;;7.00;4.40;;;;;;;;;;5039364;28;20080;-83
2022/04/17 13:31:16;;;;;;;6.38;3.92;;;;;;;;;;5041220;28;20049;-83
2022/04/17 13:33:45;;;;;;;5.03;4.53;;;;;;;;;;5038638;28;20064;-83
2022/04/17 13:36:12;;;;;;;4.45;3.97;;;;;;;;;;5040582;28;20056;-83
2022/04/17 13:38:38;;;;;;;4.53;3.97;;;;;;;;;;5033351;28;20052;-82
2022/04/17 13:41:07;;;;;;;4.35;3.95;;;;;;;;;;5041794;28;20648;-82
2022/04/17 13:43:35;;;;;;;4.93;3.90;;;;;;;;;;5044011;28;20044;-83
2022/04/17 13:46:02;;;;;;;4.63;3.50;;;;;;;;;;5038262;28;20044;-82
2022/04/17 13:48:30;;;;;;;4.38;3.80;;;;;;;;;;5032123;28;20072;-83
2022/04/17 13:51:03;;;;;;;4.50;3.40;;;;;;;;;;5042758;28;20199;-83
2022/04/17 13:53:33;;;;;;;4.10;3.53;;;;;;;;;;5042185;28;20059;-83
2022/04/17 13:56:00;;;;;;;5.38;3.90;;;;;;;;;;5038553;28;20056;-82
2022/04/17 13:58:28;;;;;;;3.72;3.33;;;;;;;;;;5035912;28;20057;-82
2022/04/17 14:00:56;;;;;;;3.58;3.25;;;;;;;;;;5041604;28;20067;-83
2022/04/17 14:03:23;;;;;;;5.63;3.72;;;;;;;;;;5039388;28;20136;-83
2022/04/17 14:05:51;;;;;;;5.75;3.42;;;;;;;;;;5035626;28;20057;-83
2022/04/17 14:08:20;;;;;;;5.47;3.33;;;;;;;;;;5039967;28;20064;-83
2022/04/17 14:10:49;;;;;;;6.07;3.50;;;;;;;;;;5040983;28;20119;-83
2022/04/17 14:13:16;;;;;;;8.32;4.13;;;;;;;;;;5042113;28;20107;-83
2022/04/17 14:15:43;;;;;;;4.43;3.47;;;;;;;;;;5039126;28;20094;-83
2022/04/17 14:18:10;;;;;;;6.53;3.47;;;;;;;;;;5044656;28;20071;-83
2022/04/17 14:20:38;;;;;;;4.03;3.15;;;;;;;;;;5036527;28;20045;-83
2022/04/17 14:23:06;;;;;;;3.75;3.33;;;;;;;;;;5036692;28;20059;-83
2022/04/17 14:25:35;;;;;;;3.92;3.53;;;;;;;;;;5038248;28;20095;-83
2022/04/17 14:28:02;;;;;;;3.83;3.42;;;;;;;;;;5041813;28;20048;-83
2022/04/17 14:30:30;;;;;;;3.80;3.30;;;;;;;;;;5036140;28;20054;-83
2022/04/17 14:32:57;;;;;;;4.28;3.38;;;;;;;;;;5036406;28;20056;-83
2022/04/17 14:35:24;;;;;;;4.88;3.28;;;;;;;;;;5034928;28;20504;-83
2022/04/17 14:37:51;;;;;;;3.63;3.15;;;;;;;;;;5039502;28;20053;-83
2022/04/17 14:40:18;;;;;;;4.25;3.53;;;;;;;;;;5046206;28;20067;-83
2022/04/17 14:42:47;;;;;;;4.18;3.40;;;;;;;;;;5040583;28;20126;-83
2022/04/17 14:45:22;;;;;;;5.03;3.20;;;;;;;;;;5040070;28;20511;-83
2022/04/17 14:47:49;;;;;;;4.60;3.28;;;;;;;;;;5040689;28;20503;-83
2022/04/17 14:50:17;;;;;;;3.50;3.20;;;;;;;;;;5041558;28;20499;-83
2022/04/17 14:52:44;;;;;;;5.05;3.47;;;;;;;;;;5040001;28;20049;-83
2022/04/17 14:55:12;;;;;;;5.43;3.63;;;;;;;;;;5038529;28;20053;-83
2022/04/17 14:57:40;;;;;;;5.20;3.70;;;;;;;;;;5038722;28;20096;-83
2022/04/17 15:00:09;;;;;;;4.88;3.30;;;;;;;;;;5039205;28;20136;-83
2022/04/17 15:02:37;;;;;;;6.05;3.50;;;;;;;;;;5033873;28;20069;-83